FACTFAGG

Guest
Details From FACT - Cape Town International
To FAGG - George
Flight Number -
Tags Generated
Created
Modified
Stats Distance 188 nm / 349 km
Max Altitude 0 ft / 0 m
Waypoints 2
Social Downloads 7
Likes 0
Share VATSIM

Download

Looking for another format? Having issues loading an existing format? Contact us
Advertisement - Login to hide

Notes

Generated

Route

FACT FAGG

ID Type Via Altitude Latitude Longitude Leg Dist Tot Dist Heading (true) Name
O FACT APT - 0 ft / 0 m -33.96149˚ 18.59772˚ - 0 nm - -
O FAGG APT - 0 ft / 0 m -34.01160˚ 22.37894˚ 188 nm 188 nm 92° / 90° George

Altitude Profile

Advertisement - Login to hide

Weather


0- 5 10 15 20 25 30 35+ Temperature / ° C

Clouds and Precipitation
Forecast for 2017-12-14 18:00 UTC. Updated 2 hours ago

Ground ~20,000 ft ~40,000 ft Winds

FACT

Details ICAO FACT (CPT)
Name Cape Town International
Region South Africa
Timezone Africa/Johannesburg (UTC+2.0)
Stats Elevation 151 ft / 46 m (AMSL)
Location -33.970501° 18.604405°
Runways 2
Magnetic Variation 25.343° W

METAR

FACT 141600Z 18021KT CAVOK 19/10 Q1017 NOSIG

Decode

TAF

TAF TAF FACT 140400Z 1406/1512 1G 1416/1418 22015KT BECMG 1418/1420 22005KT BECMG 1422/1424 28005KT BECMG 1502/1504 34005KT BECMG 1508/1510 04012KT TX22/1512Z TN17/1503Z

Decode

Departure Runways

ID Width Length Bearing (true) Bearing (mag) Surface Threshold Offset Overrun Length
01 200 ft / 61 m 10,527 ft / 3,209 m 345.27° 10.61° Asphalt 0 ft / 0 m 195 ft / 59 m
16 151 ft / 46 m 5,586 ft / 1,703 m 135.35° 160.69° Asphalt 300 ft / 91 m 0 ft / 0 m
19 200 ft / 61 m 10,527 ft / 3,209 m 165.27° 190.61° Asphalt 0 ft / 0 m 195 ft / 59 m
34 151 ft / 46 m 5,586 ft / 1,703 m 315.35° 340.69° Asphalt 300 ft / 91 m 0 ft / 0 m

FAGG

Details ICAO FAGG (GRJ)
Name George
Region South Africa
Timezone Africa/Johannesburg (UTC+2.0)
Stats Elevation 648 ft / 198 m (AMSL)
Location -34.005531° 22.378515°
Runways 1
Magnetic Variation 26.976° W

METAR

FAGG 141600Z 14009KT CAVOK 17/08 Q1019

Decode

TAF

Not found

Destination Runways

ID Width Length Bearing (true) Bearing (mag) Surface Threshold Offset Overrun Length
11 148 ft / 45 m 6,568 ft / 2,002 m 87.84° 114.82° Asphalt 0 ft / 0 m 197 ft / 60 m
29 148 ft / 45 m 6,568 ft / 2,002 m 267.82° 294.80° Asphalt 0 ft / 0 m 196 ft / 60 m

Approach Navaids

Runway Type Ident Frequency Range Bearing (true) Bearing (mag) Slope Elevation
11 Localiser GEI 109.50 MHz 18 nm / 33 km 87.83° 114.81° - 636 ft / 194 m (AMSL)
11 Glidescope GEI 109.50 MHz 10 nm / 19 km 87.83° 114.81° 3.00° 625 ft / 191 m (AMSL)
11 DME GEI 109.50 MHz 18 nm / 33 km - - - 625 ft / 191 m (AMSL)
29 Localiser GGI 110.10 MHz 18 nm / 33 km 267.85° 294.83° - 612 ft / 187 m (AMSL)
29 Glidescope GGI 110.10 MHz 10 nm / 19 km 267.83° 294.81° 2.70° 643 ft / 196 m (AMSL)

Popular Alternatives